sensor_id;sensor_type;location;lat;lon;timestamp;temperature;humidity
20422;DHT22;10370;53.102;18.034;2023-05-14T00:00:10;10.20;99.90
20422;DHT22;10370;53.102;18.034;2023-05-14T00:05:33;10.00;99.90
20422;DHT22;10370;53.102;18.034;2023-05-14T00:10:57;9.80;99.90
20422;DHT22;10370;53.102;18.034;2023-05-14T00:16:22;9.80;99.90
20422;DHT22;10370;53.102;18.034;2023-05-14T00:21:45;9.80;99.90
20422;DHT22;10370;53.102;18.034;2023-05-14T00:27:08;9.70;99.90
20422;DHT22;10370;53.102;18.034;2023-05-14T00:32:31;9.50;99.90
20422;DHT22;10370;53.102;18.034;2023-05-14T00:37:55;9.40;99.90
20422;DHT22;10370;53.102;18.034;2023-05-14T00:43:20;9.40;99.90
20422;DHT22;10370;53.102;18.034;2023-05-14T00:48:41;9.20;99.90
20422;DHT22;10370;53.102;18.034;2023-05-14T00:54:04;9.00;99.90
20422;DHT22;10370;53.102;18.034;2023-05-14T00:59:28;8.90;99.90
20422;DHT22;10370;53.102;18.034;2023-05-14T01:04:50;8.70;99.90
20422;DHT22;10370;53.102;18.034;2023-05-14T01:10:44;8.60;99.90
20422;DHT22;10370;53.102;18.034;2023-05-14T01:16:18;8.40;99.90
20422;DHT22;10370;53.102;18.034;2023-05-14T01:21:55;8.30;99.90
20422;DHT22;10370;53.102;18.034;2023-05-14T01:34:06;8.30;99.90
20422;DHT22;10370;53.102;18.034;2023-05-14T01:40:05;8.10;99.90
20422;DHT22;10370;53.102;18.034;2023-05-14T01:46:01;8.20;99.90
20422;DHT22;10370;53.102;18.034;2023-05-14T01:51:41;8.10;99.90
20422;DHT22;10370;53.102;18.034;2023-05-14T01:57:22;8.20;99.90
20422;DHT22;10370;53.102;18.034;2023-05-14T02:03:26;8.10;99.90
20422;DHT22;10370;53.102;18.034;2023-05-14T02:09:14;7.90;99.90
20422;DHT22;10370;53.102;18.034;2023-05-14T02:15:11;7.90;99.90
20422;DHT22;10370;53.102;18.034;2023-05-14T02:20:58;7.80;99.90
20422;DHT22;10370;53.102;18.034;2023-05-14T02:27:16;7.80;99.90
20422;DHT22;10370;53.102;18.034;2023-05-14T02:33:16;7.90;99.90
20422;DHT22;10370;53.102;18.034;2023-05-14T02:38:58;7.80;99.90
20422;DHT22;10370;53.102;18.034;2023-05-14T02:44:58;7.80;99.90
20422;DHT22;10370;53.102;18.034;2023-05-14T02:50:59;7.60;99.90
20422;DHT22;10370;53.102;18.034;2023-05-14T02:56:56;7.70;99.90
20422;DHT22;10370;53.102;18.034;2023-05-14T03:02:33;7.60;99.90
20422;DHT22;10370;53.102;18.034;2023-05-14T03:08:11;7.50;99.90
20422;DHT22;10370;53.102;18.034;2023-05-14T03:13:41;7.50;99.90
20422;DHT22;10370;53.102;18.034;2023-05-14T03:19:13;7.50;99.90
20422;DHT22;10370;53.102;18.034;2023-05-14T03:25:36;7.60;99.90
20422;DHT22;10370;53.102;18.034;2023-05-14T03:31:40;7.70;99.90
20422;DHT22;10370;53.102;18.034;2023-05-14T03:37:40;7.90;99.90
20422;DHT22;10370;53.102;18.034;2023-05-14T03:43:37;7.90;99.90
20422;DHT22;10370;53.102;18.034;2023-05-14T03:49:40;8.00;99.90
20422;DHT22;10370;53.102;18.034;2023-05-14T03:55:45;8.10;99.90
20422;DHT22;10370;53.102;18.034;2023-05-14T04:01:52;8.20;99.90
20422;DHT22;10370;53.102;18.034;2023-05-14T04:07:45;8.50;99.90
20422;DHT22;10370;53.102;18.034;2023-05-14T04:13:44;8.70;99.90
20422;DHT22;10370;53.102;18.034;2023-05-14T04:19:24;9.00;99.90
20422;DHT22;10370;53.102;18.034;2023-05-14T04:25:20;9.00;99.90
20422;DHT22;10370;53.102;18.034;2023-05-14T04:31:20;9.30;99.90
20422;DHT22;10370;53.102;18.034;2023-05-14T04:37:17;9.90;99.90
20422;DHT22;10370;53.102;18.034;2023-05-14T04:43:17;10.90;99.90
20422;DHT22;10370;53.102;18.034;2023-05-14T04:49:14;12.70;99.90
20422;DHT22;10370;53.102;18.034;2023-05-14T04:55:29;14.60;99.90
20422;DHT22;10370;53.102;18.034;2023-05-14T05:01:45;17.00;99.90
20422;DHT22;10370;53.102;18.034;2023-05-14T05:07:37;16.40;99.90
20422;DHT22;10370;53.102;18.034;2023-05-14T05:13:12;15.50;99.90
20422;DHT22;10370;53.102;18.034;2023-05-14T05:19:10;15.00;99.90
20422;DHT22;10370;53.102;18.034;2023-05-14T05:25:12;15.60;99.90
20422;DHT22;10370;53.102;18.034;2023-05-14T05:30:53;15.40;99.90
20422;DHT22;10370;53.102;18.034;2023-05-14T05:36:35;14.80;99.90
20422;DHT22;10370;53.102;18.034;2023-05-14T05:42:12;14.60;99.90
20422;DHT22;10370;53.102;18.034;2023-05-14T05:48:29;14.60;99.90
20422;DHT22;10370;53.102;18.034;2023-05-14T05:54:41;14.60;99.90
20422;DHT22;10370;53.102;18.034;2023-05-14T06:00:25;15.00;99.90
20422;DHT22;10370;53.102;18.034;2023-05-14T06:05:51;15.90;99.90
20422;DHT22;10370;53.102;18.034;2023-05-14T06:11:24;15.70;99.90
20422;DHT22;10370;53.102;18.034;2023-05-14T06:17:16;15.90;99.90
20422;DHT22;10370;53.102;18.034;2023-05-14T06:23:03;16.70;99.90
20422;DHT22;10370;53.102;18.034;2023-05-14T06:28:48;17.30;99.90
20422;DHT22;10370;53.102;18.034;2023-05-14T06:34:14;17.60;99.90
20422;DHT22;10370;53.102;18.034;2023-05-14T06:39:56;17.40;99.90
20422;DHT22;10370;53.102;18.034;2023-05-14T06:45:21;17.30;99.90
20422;DHT22;10370;53.102;18.034;2023-05-14T06:50:47;17.20;99.90
20422;DHT22;10370;53.102;18.034;2023-05-14T06:56:25;17.20;99.90
20422;DHT22;10370;53.102;18.034;2023-05-14T07:02:05;17.60;99.90
20422;DHT22;10370;53.102;18.034;2023-05-14T07:07:43;18.10;99.90
20422;DHT22;10370;53.102;18.034;2023-05-14T07:13:24;18.20;99.90
20422;DHT22;10370;53.102;18.034;2023-05-14T07:19:01;18.40;99.90
20422;DHT22;10370;53.102;18.034;2023-05-14T07:25:11;18.30;99.90
20422;DHT22;10370;53.102;18.034;2023-05-14T08:04:05;19.20;99.90
20422;DHT22;10370;53.102;18.034;2023-05-14T08:09:28;19.30;99.90
20422;DHT22;10370;53.102;18.034;2023-05-14T08:14:52;19.50;99.90
20422;DHT22;10370;53.102;18.034;2023-05-14T08:20:17;19.60;99.70
20422;DHT22;10370;53.102;18.034;2023-05-14T08:25:41;19.90;99.90
20422;DHT22;10370;53.102;18.034;2023-05-14T08:31:07;20.10;99.90
20422;DHT22;10370;53.102;18.034;2023-05-14T08:36:33;20.20;98.40
20422;DHT22;10370;53.102;18.034;2023-05-14T08:41:56;20.20;98.10
20422;DHT22;10370;53.102;18.034;2023-05-14T08:47:21;20.10;98.50
20422;DHT22;10370;53.102;18.034;2023-05-14T08:52:44;20.50;97.90
20422;DHT22;10370;53.102;18.034;2023-05-14T08:58:07;20.50;94.90
20422;DHT22;10370;53.102;18.034;2023-05-14T09:03:31;20.60;94.50
20422;DHT22;10370;53.102;18.034;2023-05-14T09:08:55;21.00;94.30
20422;DHT22;10370;53.102;18.034;2023-05-14T09:14:21;21.20;90.80
20422;DHT22;10370;53.102;18.034;2023-05-14T09:19:46;21.20;85.80
20422;DHT22;10370;53.102;18.034;2023-05-14T09:25:10;21.40;85.50
20422;DHT22;10370;53.102;18.034;2023-05-14T09:30:35;21.50;81.80
20422;DHT22;10370;53.102;18.034;2023-05-14T09:36:01;21.50;82.00
20422;DHT22;10370;53.102;18.034;2023-05-14T09:41:26;21.80;80.20
20422;DHT22;10370;53.102;18.034;2023-05-14T09:46:50;21.80;78.00
20422;DHT22;10370;53.102;18.034;2023-05-14T09:52:14;22.00;76.70
20422;DHT22;10370;53.102;18.034;2023-05-14T09:57:37;21.60;74.30
20422;DHT22;10370;53.102;18.034;2023-05-14T10:03:04;21.40;75.10
20422;DHT22;10370;53.102;18.034;2023-05-14T10:08:33;21.70;70.80
20422;DHT22;10370;53.102;18.034;2023-05-14T10:14:19;22.00;75.70
20422;DHT22;10370;53.102;18.034;2023-05-14T10:19:45;22.30;70.60
20422;DHT22;10370;53.102;18.034;2023-05-14T10:25:10;21.80;70.40
20422;DHT22;10370;53.102;18.034;2023-05-14T10:30:34;21.70;72.80
20422;DHT22;10370;53.102;18.034;2023-05-14T10:36:06;21.80;71.70
20422;DHT22;10370;53.102;18.034;2023-05-14T10:41:34;21.80;70.70
20422;DHT22;10370;53.102;18.034;2023-05-14T10:46:58;22.10;64.50
20422;DHT22;10370;53.102;18.034;2023-05-14T10:52:22;22.00;67.10
20422;DHT22;10370;53.102;18.034;2023-05-14T10:57:45;21.80;68.10
20422;DHT22;10370;53.102;18.034;2023-05-14T11:03:07;21.80;67.00
20422;DHT22;10370;53.102;18.034;2023-05-14T11:08:31;21.80;70.00
20422;DHT22;10370;53.102;18.034;2023-05-14T11:13:57;21.50;67.00
20422;DHT22;10370;53.102;18.034;2023-05-14T11:19:22;21.30;69.70
20422;DHT22;10370;53.102;18.034;2023-05-14T11:24:46;21.10;70.80
20422;DHT22;10370;53.102;18.034;2023-05-14T11:30:14;20.90;70.80
20422;DHT22;10370;53.102;18.034;2023-05-14T11:35:38;20.90;72.20
20422;DHT22;10370;53.102;18.034;2023-05-14T11:41:02;20.80;71.30
20422;DHT22;10370;53.102;18.034;2023-05-14T11:46:29;20.50;72.30
20422;DHT22;10370;53.102;18.034;2023-05-14T11:52:03;20.50;71.90
20422;DHT22;10370;53.102;18.034;2023-05-14T11:57:28;20.80;71.10
20422;DHT22;10370;53.102;18.034;2023-05-14T12:02:53;21.10;73.60
20422;DHT22;10370;53.102;18.034;2023-05-14T12:08:27;21.20;71.80
20422;DHT22;10370;53.102;18.034;2023-05-14T12:13:51;21.30;72.00
20422;DHT22;10370;53.102;18.034;2023-05-14T12:19:14;21.10;70.40
20422;DHT22;10370;53.102;18.034;2023-05-14T12:24:39;21.10;68.90
20422;DHT22;10370;53.102;18.034;2023-05-14T12:30:04;21.10;69.80
20422;DHT22;10370;53.102;18.034;2023-05-14T12:35:43;21.20;69.40
20422;DHT22;10370;53.102;18.034;2023-05-14T12:41:07;21.10;69.30
20422;DHT22;10370;53.102;18.034;2023-05-14T12:46:32;20.90;70.90
20422;DHT22;10370;53.102;18.034;2023-05-14T12:51:56;20.90;70.30
20422;DHT22;10370;53.102;18.034;2023-05-14T12:57:37;20.90;70.00
20422;DHT22;10370;53.102;18.034;2023-05-14T13:03:03;21.00;69.20
20422;DHT22;10370;53.102;18.034;2023-05-14T13:08:28;21.30;69.30
20422;DHT22;10370;53.102;18.034;2023-05-14T13:13:52;21.60;69.40
20422;DHT22;10370;53.102;18.034;2023-05-14T13:19:16;21.70;68.60
20422;DHT22;10370;53.102;18.034;2023-05-14T13:24:40;22.00;69.30
20422;DHT22;10370;53.102;18.034;2023-05-14T13:30:02;22.00;69.10
20422;DHT22;10370;53.102;18.034;2023-05-14T13:35:27;21.80;68.50
20422;DHT22;10370;53.102;18.034;2023-05-14T13:40:53;21.50;68.30
20422;DHT22;10370;53.102;18.034;2023-05-14T13:46:18;21.30;67.20
20422;DHT22;10370;53.102;18.034;2023-05-14T13:51:43;21.50;67.80
20422;DHT22;10370;53.102;18.034;2023-05-14T13:57:07;21.40;68.50
20422;DHT22;10370;53.102;18.034;2023-05-14T14:02:31;21.50;68.80
20422;DHT22;10370;53.102;18.034;2023-05-14T14:07:54;21.80;68.30
20422;DHT22;10370;53.102;18.034;2023-05-14T14:13:19;21.60;67.80
20422;DHT22;10370;53.102;18.034;2023-05-14T14:18:43;21.70;67.90
20422;DHT22;10370;53.102;18.034;2023-05-14T14:24:07;21.70;67.90
20422;DHT22;10370;53.102;18.034;2023-05-14T14:29:32;21.60;67.60
20422;DHT22;10370;53.102;18.034;2023-05-14T14:34:56;21.60;66.70
20422;DHT22;10370;53.102;18.034;2023-05-14T14:40:23;21.70;67.60
20422;DHT22;10370;53.102;18.034;2023-05-14T14:45:46;21.50;67.00
20422;DHT22;10370;53.102;18.034;2023-05-14T14:51:11;21.50;66.70
20422;DHT22;10370;53.102;18.034;2023-05-14T14:56:35;21.40;67.60
20422;DHT22;10370;53.102;18.034;2023-05-14T15:02:01;21.40;68.40
20422;DHT22;10370;53.102;18.034;2023-05-14T15:07:26;21.40;68.20
20422;DHT22;10370;53.102;18.034;2023-05-14T15:12:58;21.50;68.50
20422;DHT22;10370;53.102;18.034;2023-05-14T15:18:23;21.40;67.90
20422;DHT22;10370;53.102;18.034;2023-05-14T15:23:48;21.20;68.90
20422;DHT22;10370;53.102;18.034;2023-05-14T15:29:13;21.20;69.60
20422;DHT22;10370;53.102;18.034;2023-05-14T15:34:39;21.50;70.60
20422;DHT22;10370;53.102;18.034;2023-05-14T15:40:03;21.70;69.60
20422;DHT22;10370;53.102;18.034;2023-05-14T15:45:30;21.90;70.10
20422;DHT22;10370;53.102;18.034;2023-05-14T15:50:55;21.60;68.90
20422;DHT22;10370;53.102;18.034;2023-05-14T15:56:20;21.30;70.00
20422;DHT22;10370;53.102;18.034;2023-05-14T16:01:45;21.40;70.60
20422;DHT22;10370;53.102;18.034;2023-05-14T16:07:10;21.30;71.10
20422;DHT22;10370;53.102;18.034;2023-05-14T16:12:38;21.30;72.70
20422;DHT22;10370;53.102;18.034;2023-05-14T16:18:00;21.30;73.30
20422;DHT22;10370;53.102;18.034;2023-05-14T16:23:24;21.20;72.90
20422;DHT22;10370;53.102;18.034;2023-05-14T16:28:48;21.10;72.50
20422;DHT22;10370;53.102;18.034;2023-05-14T16:34:15;21.00;73.50
20422;DHT22;10370;53.102;18.034;2023-05-14T16:39:37;21.10;72.60
20422;DHT22;10370;53.102;18.034;2023-05-14T16:44:59;21.00;73.50
20422;DHT22;10370;53.102;18.034;2023-05-14T16:50:24;20.90;72.50
20422;DHT22;10370;53.102;18.034;2023-05-14T16:55:51;20.90;73.50
20422;DHT22;10370;53.102;18.034;2023-05-14T17:01:15;20.80;75.20
20422;DHT22;10370;53.102;18.034;2023-05-14T17:06:44;20.80;76.50
20422;DHT22;10370;53.102;18.034;2023-05-14T17:12:09;20.70;77.00
20422;DHT22;10370;53.102;18.034;2023-05-14T17:17:33;20.60;76.80
20422;DHT22;10370;53.102;18.034;2023-05-14T17:23:02;20.50;76.30
20422;DHT22;10370;53.102;18.034;2023-05-14T17:28:28;20.40;76.60
20422;DHT22;10370;53.102;18.034;2023-05-14T17:33:53;20.30;76.60
20422;DHT22;10370;53.102;18.034;2023-05-14T17:39:21;20.10;77.00
20422;DHT22;10370;53.102;18.034;2023-05-14T17:44:44;20.00;77.30
20422;DHT22;10370;53.102;18.034;2023-05-14T17:50:11;19.90;77.60
20422;DHT22;10370;53.102;18.034;2023-05-14T17:55:36;19.80;77.50
20422;DHT22;10370;53.102;18.034;2023-05-14T18:01:06;19.80;78.20
20422;DHT22;10370;53.102;18.034;2023-05-14T18:06:30;19.70;80.10
20422;DHT22;10370;53.102;18.034;2023-05-14T18:11:55;19.60;80.70
20422;DHT22;10370;53.102;18.034;2023-05-14T18:17:22;19.50;80.80
20422;DHT22;10370;53.102;18.034;2023-05-14T18:22:47;19.30;81.30
20422;DHT22;10370;53.102;18.034;2023-05-14T18:28:12;19.30;82.00
20422;DHT22;10370;53.102;18.034;2023-05-14T18:33:40;19.10;83.30
20422;DHT22;10370;53.102;18.034;2023-05-14T18:39:04;18.90;84.00
20422;DHT22;10370;53.102;18.034;2023-05-14T18:44:26;18.80;83.90
20422;DHT22;10370;53.102;18.034;2023-05-14T18:49:50;18.70;84.50
20422;DHT22;10370;53.102;18.034;2023-05-14T18:55:16;18.60;84.40
20422;DHT22;10370;53.102;18.034;2023-05-14T19:00:41;18.50;84.80
20422;DHT22;10370;53.102;18.034;2023-05-14T19:06:05;18.20;88.60
20422;DHT22;10370;53.102;18.034;2023-05-14T19:11:28;18.00;90.30
20422;DHT22;10370;53.102;18.034;2023-05-14T19:16:54;17.70;92.00
20422;DHT22;10370;53.102;18.034;2023-05-14T19:22:16;17.40;92.70
20422;DHT22;10370;53.102;18.034;2023-05-14T19:27:41;17.30;93.80
20422;DHT22;10370;53.102;18.034;2023-05-14T19:33:05;17.20;94.70
20422;DHT22;10370;53.102;18.034;2023-05-14T19:38:29;17.00;95.10
20422;DHT22;10370;53.102;18.034;2023-05-14T19:43:53;16.90;95.40
20422;DHT22;10370;53.102;18.034;2023-05-14T19:49:17;16.80;96.50
20422;DHT22;10370;53.102;18.034;2023-05-14T19:54:39;16.70;96.70
20422;DHT22;10370;53.102;18.034;2023-05-14T20:00:07;16.70;97.20
20422;DHT22;10370;53.102;18.034;2023-05-14T20:05:33;16.50;98.60
20422;DHT22;10370;53.102;18.034;2023-05-14T20:11:02;16.30;98.60
20422;DHT22;10370;53.102;18.034;2023-05-14T20:16:26;16.20;98.90
20422;DHT22;10370;53.102;18.034;2023-05-14T20:21:50;16.20;99.40
20422;DHT22;10370;53.102;18.034;2023-05-14T20:27:12;16.10;99.20
20422;DHT22;10370;53.102;18.034;2023-05-14T20:32:34;16.10;99.90
20422;DHT22;10370;53.102;18.034;2023-05-14T20:37:59;15.90;99.90
20422;DHT22;10370;53.102;18.034;2023-05-14T20:43:25;15.90;99.90
20422;DHT22;10370;53.102;18.034;2023-05-14T20:48:48;15.70;99.90
20422;DHT22;10370;53.102;18.034;2023-05-14T20:54:16;15.40;99.90
20422;DHT22;10370;53.102;18.034;2023-05-14T20:59:41;15.40;99.90
20422;DHT22;10370;53.102;18.034;2023-05-14T21:05:05;15.30;99.90
20422;DHT22;10370;53.102;18.034;2023-05-14T21:10:30;15.30;99.90
20422;DHT22;10370;53.102;18.034;2023-05-14T21:15:54;15.30;99.90
20422;DHT22;10370;53.102;18.034;2023-05-14T21:21:18;15.20;99.90
20422;DHT22;10370;53.102;18.034;2023-05-14T21:26:41;15.00;99.90
20422;DHT22;10370;53.102;18.034;2023-05-14T21:32:05;14.90;99.90
20422;DHT22;10370;53.102;18.034;2023-05-14T21:37:28;14.90;99.90
20422;DHT22;10370;53.102;18.034;2023-05-14T21:42:52;14.90;99.90
20422;DHT22;10370;53.102;18.034;2023-05-14T21:48:15;14.70;99.90
20422;DHT22;10370;53.102;18.034;2023-05-14T21:53:38;14.60;99.90
20422;DHT22;10370;53.102;18.034;2023-05-14T21:59:01;14.40;99.90
20422;DHT22;10370;53.102;18.034;2023-05-14T22:04:24;14.40;99.90
20422;DHT22;10370;53.102;18.034;2023-05-14T22:09:49;14.40;99.90
20422;DHT22;10370;53.102;18.034;2023-05-14T22:15:13;14.30;99.90
20422;DHT22;10370;53.102;18.034;2023-05-14T22:20:39;14.30;99.90
20422;DHT22;10370;53.102;18.034;2023-05-14T22:26:02;14.40;99.90
20422;DHT22;10370;53.102;18.034;2023-05-14T22:31:28;14.30;99.90
20422;DHT22;10370;53.102;18.034;2023-05-14T22:36:51;14.40;99.90
20422;DHT22;10370;53.102;18.034;2023-05-14T22:42:15;14.40;99.90
20422;DHT22;10370;53.102;18.034;2023-05-14T22:47:39;14.40;99.90
20422;DHT22;10370;53.102;18.034;2023-05-14T22:53:00;14.40;99.90
20422;DHT22;10370;53.102;18.034;2023-05-14T22:58:28;14.40;99.90
20422;DHT22;10370;53.102;18.034;2023-05-14T23:03:51;14.30;99.90
20422;DHT22;10370;53.102;18.034;2023-05-14T23:09:14;14.40;99.90
20422;DHT22;10370;53.102;18.034;2023-05-14T23:14:37;14.40;99.90
20422;DHT22;10370;53.102;18.034;2023-05-14T23:19:59;14.50;99.90
20422;DHT22;10370;53.102;18.034;2023-05-14T23:25:26;14.60;99.90
20422;DHT22;10370;53.102;18.034;2023-05-14T23:30:50;14.60;99.90
20422;DHT22;10370;53.102;18.034;2023-05-14T23:36:15;14.50;99.90
20422;DHT22;10370;53.102;18.034;2023-05-14T23:41:38;14.50;99.90
20422;DHT22;10370;53.102;18.034;2023-05-14T23:47:01;14.60;99.90
20422;DHT22;10370;53.102;18.034;2023-05-14T23:52:26;14.60;99.90
20422;DHT22;10370;53.102;18.034;2023-05-14T23:57:49;14.60;99.90
